Time;durP1;ratioP1;P1;durP2;ratioP2;P2;SDS_P1;SDS_P2;PMS_P1;PMS_P2;Temp;Humidity;BMP_temperature;BMP_pressure;BME280_temperature;BME280_humidity;BME280_pressure;Samples;Min_cycle;Max_cycle;Signal;HPM_P1;HPM_P2
2023/05/03 00:01:31;;;;;;;4.25;1.60;;;;;;;15.53;40.57;97498.69;5111459;28;20020;-82
2023/05/03 00:03:57;;;;;;;5.10;1.83;;;;;;;15.47;40.79;97478.44;5111093;28;20020;-81
2023/05/03 00:06:22;;;;;;;4.97;1.98;;;;;;;15.48;40.79;97485.56;5093825;28;20465;-82
2023/05/03 00:08:48;;;;;;;3.90;2.00;;;;;;;15.48;40.54;97473.91;5111298;28;20031;-82
2023/05/03 00:11:13;;;;;;;2.53;1.55;;;;;;;15.42;40.64;97469.84;5094332;28;20023;-82
2023/05/03 00:13:39;;;;;;;3.30;1.75;;;;;;;15.47;40.15;97478.44;5110870;28;20088;-82
2023/05/03 00:16:05;;;;;;;2.53;1.52;;;;;;;15.50;40.04;97467.44;5110933;28;20507;-81
2023/05/03 00:18:31;;;;;;;6.45;1.75;;;;;;;15.44;39.71;97478.66;5112154;28;20114;-81
2023/05/03 00:20:58;;;;;;;2.83;1.92;;;;;;;15.57;38.83;97471.31;5111050;28;20023;-82
2023/05/03 00:23:24;;;;;;;3.15;1.63;;;;;;;15.57;39.18;97470.44;5110280;28;20016;-82
2023/05/03 00:25:57;;;;;;;1.95;1.60;;;;;;;15.62;38.71;97471.81;5111254;28;20517;-82
2023/05/03 00:28:23;;;;;;;2.05;1.65;;;;;;;15.69;38.86;97481.06;5111723;28;20031;-82
2023/05/03 00:30:49;;;;;;;5.22;1.77;;;;;;;15.69;38.48;97477.53;5093882;28;20510;-82
2023/05/03 00:33:17;;;;;;;3.25;1.55;;;;;;;15.63;38.93;97468.09;5093860;28;20164;-82
2023/05/03 00:35:44;;;;;;;7.60;1.60;;;;;;;15.66;38.35;97478.63;5093872;28;20070;-81
2023/05/03 00:38:10;;;;;;;7.07;1.92;;;;;;;15.65;38.58;97471.56;5094052;28;20504;-82
2023/05/03 00:40:35;;;;;;;2.22;1.63;;;;;;;15.67;37.99;97463.31;5093243;28;20115;-82
2023/05/03 00:43:01;;;;;;;5.00;1.90;;;;;;;15.72;38.13;97466.47;5112076;28;20059;-83
2023/05/03 00:45:31;;;;;;;3.92;1.60;;;;;;;15.64;38.23;97466.28;5111542;28;20540;-84
2023/05/03 00:47:57;;;;;;;8.38;1.80;;;;;;;15.68;37.45;97470.44;5093756;28;20083;-83
2023/05/03 00:50:22;;;;;;;2.00;1.50;;;;;;;15.64;37.60;97461.75;5093520;28;20059;-80
2023/05/03 00:52:48;;;;;;;1.40;1.30;;;;;;;15.66;37.19;97462.47;5093148;28;20035;-84
2023/05/03 00:55:14;;;;;;;3.75;1.75;;;;;;;15.67;37.15;97461.47;5111853;28;20032;-84
2023/05/03 00:57:40;;;;;;;6.00;1.33;;;;;;;15.66;37.23;97458.91;5093420;28;20570;-83
2023/05/03 01:00:09;;;;;;;2.72;1.83;;;;;;;15.63;37.55;97481.59;5110590;28;20117;-84
2023/05/03 01:02:35;;;;;;;3.78;1.90;;;;;;;15.59;37.52;97468.50;5094072;28;20027;-82
2023/05/03 01:05:01;;;;;;;1.98;1.48;;;;;;;15.55;37.93;97485.91;5093892;28;20039;-83
2023/05/03 01:07:34;;;;;;;2.00;1.30;;;;;;;15.47;37.91;97483.84;5110641;28;20059;-82
2023/05/03 01:10:05;;;;;;;4.30;1.35;;;;;;;15.41;38.65;97492.41;5111379;28;20102;-82
2023/05/03 01:12:37;;;;;;;3.97;2.00;;;;;;;15.36;39.06;97500.00;5110230;28;20075;-82
2023/05/03 01:15:14;;;;;;;2.55;1.65;;;;;;;15.34;39.80;97506.53;5110187;28;20110;-82
2023/05/03 01:17:53;;;;;;;2.90;1.55;;;;;;;15.27;39.10;97502.59;5113629;28;20426;-82
2023/05/03 01:20:25;;;;;;;3.67;1.50;;;;;;;15.26;39.75;97504.44;5114280;28;20034;-82
2023/05/03 01:22:57;;;;;;;;;;;;;;;15.31;40.05;97517.56;5097867;28;20031;-82
2023/05/03 01:25:22;;;;;;;2.42;1.60;;;;;;;15.17;40.50;97502.50;5115382;28;19919;-82
2023/05/03 01:27:48;;;;;;;5.13;1.73;;;;;;;15.10;40.98;97490.53;5096720;28;20027;-81
2023/05/03 01:30:14;;;;;;;5.10;1.80;;;;;;;15.13;41.49;97495.66;5115506;28;20573;-82
2023/05/03 01:32:58;;;;;;;2.13;1.75;;;;;;;15.11;41.42;97505.69;5113896;28;20028;-82
2023/05/03 01:35:36;;;;;;;4.07;1.70;;;;;;;15.00;41.92;97482.31;5113662;28;20064;-82
2023/05/03 01:38:02;;;;;;;2.97;1.85;;;;;;;14.97;42.48;97493.34;5114514;28;20435;-82
2023/05/03 01:40:28;;;;;;;2.17;1.75;;;;;;;14.90;42.49;97473.25;5096959;28;20092;-82
2023/05/03 01:42:55;;;;;;;4.28;2.03;;;;;;;14.93;42.87;97481.09;5096627;28;20055;-83
2023/05/03 01:45:21;;;;;;;5.43;2.10;;;;;;;14.88;43.33;97485.13;5096410;28;20016;-82
2023/05/03 01:47:56;;;;;;;8.02;2.03;;;;;;;14.85;43.84;97496.16;5113974;28;20039;-82
2023/05/03 01:50:22;;;;;;;4.32;1.85;;;;;;;14.74;44.12;97494.31;5096512;28;20499;-83
2023/05/03 01:52:51;;;;;;;2.47;1.77;;;;;;;14.74;44.81;97488.91;5096509;28;20475;-83
2023/05/03 01:55:17;;;;;;;3.78;1.85;;;;;;;14.67;45.08;97489.53;5096881;28;20511;-82
2023/05/03 01:57:42;;;;;;;7.05;1.67;;;;;;;14.62;45.73;97489.91;5113854;28;20024;-81
2023/05/03 02:00:08;;;;;;;2.60;1.70;;;;;;;14.59;45.74;97487.44;5113894;28;20027;-81
2023/05/03 02:02:34;;;;;;;2.70;1.50;;;;;;;14.50;45.63;97472.03;5096486;28;20115;-81
2023/05/03 02:04:59;;;;;;;4.35;1.85;;;;;;;14.61;45.92;97489.03;5113557;28;20116;-81
2023/05/03 02:07:25;;;;;;;2.22;1.70;;;;;;;14.56;45.37;97472.41;5096001;28;20031;-82
2023/05/03 02:09:51;;;;;;;3.50;1.90;;;;;;;14.60;45.19;97473.88;5113574;28;20119;-82
2023/05/03 02:12:27;;;;;;;2.83;1.60;;;;;;;14.59;45.76;97488.31;5115052;28;20027;-83
2023/05/03 02:14:53;;;;;;;4.25;1.80;;;;;;;14.58;46.57;97504.59;5096033;28;20046;-83
2023/05/03 02:17:19;;;;;;;2.95;2.00;;;;;;;14.52;46.61;97487.06;5095647;28;20028;-82
2023/05/03 02:19:45;;;;;;;3.05;1.90;;;;;;;14.45;46.88;97491.25;5113315;28;20046;-83
2023/05/03 02:22:10;;;;;;;4.07;1.92;;;;;;;14.41;47.38;97497.84;5096281;28;20494;-84
2023/05/03 02:24:36;;;;;;;3.10;2.00;;;;;;;14.36;47.54;97485.72;5096195;28;20027;-83
2023/05/03 02:27:05;;;;;;;3.67;1.70;;;;;;;14.40;47.23;97484.47;5113026;28;20023;-83
2023/05/03 02:29:31;;;;;;;3.75;2.03;;;;;;;14.36;47.39;97491.09;5096414;28;20048;-84
2023/05/03 02:31:56;;;;;;;3.13;1.98;;;;;;;14.33;47.75;97486.81;5112963;28;20049;-82
2023/05/03 02:34:22;;;;;;;3.05;2.00;;;;;;;14.36;47.42;97494.66;5114555;28;20036;-83
2023/05/03 02:36:48;;;;;;;6.40;1.92;;;;;;;14.29;47.82;97498.75;5095590;28;20027;-83
2023/05/03 02:39:13;;;;;;;2.78;1.90;;;;;;;14.27;48.10;97498.03;5112895;28;20024;-84
2023/05/03 02:41:39;;;;;;;2.38;2.05;;;;;;;14.28;47.84;97502.41;5095438;28;20107;-84
2023/05/03 02:44:04;;;;;;;3.53;2.03;;;;;;;14.32;47.44;97495.81;5095131;28;20020;-85
2023/05/03 02:46:30;;;;;;;4.53;2.25;;;;;;;14.23;48.11;97485.78;5095868;28;20054;-83
2023/05/03 02:48:55;;;;;;;4.40;2.20;;;;;;;14.24;48.17;97500.97;5113695;28;20174;-84
2023/05/03 02:51:21;;;;;;;6.35;2.30;;;;;;;14.19;48.08;97505.81;5113054;28;20051;-84
2023/05/03 02:53:47;;;;;;;3.28;2.05;;;;;;;14.28;48.10;97523.94;5113810;28;20024;-83
2023/05/03 02:56:12;;;;;;;4.80;2.75;;;;;;;14.29;48.29;97522.97;5112389;28;20027;-85
2023/05/03 02:58:38;;;;;;;4.85;2.05;;;;;;;14.24;47.83;97524.31;5112850;28;20030;-85
2023/05/03 03:01:03;;;;;;;4.43;2.15;;;;;;;14.24;48.44;97518.94;5112301;28;20118;-85
2023/05/03 03:03:29;;;;;;;3.92;2.03;;;;;;;14.22;48.12;97519.03;5094979;28;20403;-83
2023/05/03 03:05:54;;;;;;;3.60;2.38;;;;;;;14.21;48.41;97520.03;5095247;28;20028;-83
2023/05/03 03:08:22;;;;;;;3.55;1.80;;;;;;;14.24;48.73;97524.31;5112371;28;20098;-84
2023/05/03 03:10:47;;;;;;;2.83;1.90;;;;;;;14.06;49.50;97531.94;5112572;28;20092;-84
2023/05/03 03:13:14;;;;;;;4.05;2.20;;;;;;;13.99;50.27;97522.63;5112840;28;20035;-82
2023/05/03 03:15:42;;;;;;;3.85;2.22;;;;;;;13.91;50.55;97511.59;5111606;28;20032;-83
2023/05/03 03:18:07;;;;;;;3.35;2.05;;;;;;;13.97;50.06;97524.56;5095063;28;20027;-84
2023/05/03 03:20:33;;;;;;;3.40;2.10;;;;;;;13.88;50.28;97515.38;5112197;28;20521;-81
2023/05/03 03:22:58;;;;;;;5.95;2.38;;;;;;;13.91;50.43;97522.34;5105173;28;20023;-82
2023/05/03 03:25:24;;;;;;;3.03;2.22;;;;;;;13.94;50.88;97532.88;5111954;28;20555;-83
2023/05/03 03:27:49;;;;;;;3.53;2.15;;;;;;;13.93;50.34;97520.41;5095561;28;20036;-84
2023/05/03 03:30:15;;;;;;;8.23;2.35;;;;;;;13.93;50.83;97525.78;5111848;28;20043;-83
2023/05/03 03:32:40;;;;;;;3.03;2.10;;;;;;;13.89;50.82;97519.78;5094981;28;20151;-80
2023/05/03 03:35:08;;;;;;;2.60;1.92;;;;;;;13.89;51.08;97521.59;5095066;28;20034;-78
2023/05/03 03:37:35;;;;;;;2.95;2.10;;;;;;;13.83;51.27;97524.75;5111510;28;20070;-77
2023/05/03 03:40:20;;;;;;;4.03;2.25;;;;;;;13.61;52.00;97492.41;5094105;28;20047;-79
2023/05/03 03:42:59;;;;;;;3.63;2.55;;;;;;;13.84;51.55;97531.88;5110658;28;20047;-78
2023/05/03 03:46:06;;;;;;;2.92;2.00;;;;;;;13.43;52.13;97484.75;5111548;28;20115;-77
2023/05/03 03:48:55;;;;;;;4.05;2.30;;;;;;;13.69;52.61;97535.69;5073060;28;20495;-84
2023/05/03 03:51:21;;;;;;;5.05;2.65;;;;;;;13.56;53.07;97522.31;5094024;28;20149;-84
2023/05/03 03:53:46;;;;;;;6.53;2.45;;;;;;;13.75;53.40;97559.44;5111770;28;20032;-83
2023/05/03 03:56:12;;;;;;;4.95;2.55;;;;;;;13.76;53.29;97562.00;5094531;28;20505;-83
2023/05/03 03:58:37;;;;;;;2.88;2.08;;;;;;;13.74;53.41;97558.56;5111990;28;20036;-82
2023/05/03 04:01:03;;;;;;;6.90;2.90;;;;;;;13.75;53.31;97567.50;5111581;28;20104;-82
2023/05/03 04:03:29;;;;;;;8.15;4.18;;;;;;;13.73;53.72;97570.28;5111486;28;20015;-82
2023/05/03 04:05:54;;;;;;;4.43;2.38;;;;;;;13.74;53.22;97571.16;5111636;28;20031;-82
2023/05/03 04:08:20;;;;;;;5.45;2.42;;;;;;;13.77;52.82;97571.78;5093792;28;20092;-72
2023/05/03 04:10:45;;;;;;;4.18;2.50;;;;;;;13.78;53.13;97580.72;5111728;28;20026;-84
2023/05/03 04:13:11;;;;;;;5.95;2.40;;;;;;;13.84;53.50;97586.47;5111264;28;20103;-81
2023/05/03 04:15:36;;;;;;;3.35;2.20;;;;;;;13.89;53.07;97594.22;5114876;28;20020;-81
2023/05/03 04:18:02;;;;;;;4.82;2.78;;;;;;;13.84;53.13;97585.66;5110859;28;20019;-81
2023/05/03 04:20:28;;;;;;;6.53;2.50;;;;;;;13.93;53.42;97591.19;5110954;28;20517;-83
2023/05/03 04:22:53;;;;;;;3.00;2.17;;;;;;;13.92;53.96;97593.97;5094127;28;20426;-84
2023/05/03 04:25:19;;;;;;;3.67;2.10;;;;;;;13.88;53.30;97581.72;5094371;28;20042;-83
2023/05/03 04:27:46;;;;;;;4.63;1.73;;;;;;;13.88;53.69;97592.47;5111882;28;20104;-83
2023/05/03 04:30:13;;;;;;;3.67;2.35;;;;;;;13.87;54.35;97596.16;5111594;28;20052;-83
2023/05/03 04:32:39;;;;;;;8.32;3.15;;;;;;;13.82;55.78;97612.63;5098694;28;20024;-83
2023/05/03 04:35:09;;;;;;;5.22;2.40;;;;;;;13.85;55.37;97619.59;5111107;28;20031;-83
2023/05/03 04:37:39;;;;;;;4.63;2.42;;;;;;;13.83;56.08;97624.25;5094071;28;20027;-83
2023/05/03 04:40:10;;;;;;;4.13;2.35;;;;;;;13.83;56.28;97626.94;5094070;28;20024;-82
2023/05/03 04:42:36;;;;;;;9.40;4.27;;;;;;;13.81;56.36;97635.09;5111814;28;20024;-82
2023/05/03 04:45:03;;;;;;;4.00;2.83;;;;;;;13.73;56.83;97625.88;5093974;28;20024;-82
2023/05/03 04:47:29;;;;;;;5.53;2.25;;;;;;;13.77;57.19;97632.75;5110066;28;20024;-82
2023/05/03 04:49:54;;;;;;;3.85;1.65;;;;;;;13.78;56.87;97627.25;5092986;28;20045;-82
2023/05/03 04:52:20;;;;;;;4.10;2.42;;;;;;;13.82;57.54;97631.44;5113364;28;20410;-80
2023/05/03 04:54:46;;;;;;;3.88;2.47;;;;;;;13.80;57.37;97632.53;5097005;28;20493;-82
2023/05/03 04:57:12;;;;;;;8.10;2.60;;;;;;;13.81;57.77;97640.47;5114761;28;20016;-82
2023/05/03 04:59:37;;;;;;;6.95;2.78;;;;;;;13.91;57.28;97651.41;5114193;28;20031;-82
2023/05/03 05:02:03;;;;;;;6.18;2.70;;;;;;;13.97;57.76;97659.03;5097203;28;20027;-83
2023/05/03 05:04:28;;;;;;;5.38;2.63;;;;;;;13.90;58.44;97655.09;5114467;28;20016;-82
2023/05/03 05:06:54;;;;;;;7.18;3.05;;;;;;;14.00;57.45;97667.75;5097153;28;20031;-82
2023/05/03 05:09:21;;;;;;;7.32;2.72;;;;;;;14.04;57.84;97673.75;5114483;28;20418;-83
2023/05/03 05:11:47;;;;;;;4.60;2.90;;;;;;;14.00;58.72;97672.25;5113799;28;20115;-82
2023/05/03 05:14:12;;;;;;;4.35;2.72;;;;;;;13.93;59.26;97679.94;5113608;28;20470;-82
2023/05/03 05:16:37;;;;;;;6.30;2.60;;;;;;;13.84;61.65;97694.03;5095948;28;20043;-82
2023/05/03 05:19:03;;;;;;;11.75;2.65;;;;;;;13.63;65.15;97690.19;5096504;28;20031;-83
2023/05/03 05:21:29;;;;;;;13.27;6.55;;;;;;;13.45;67.42;97699.59;5096826;28;20036;-82
2023/05/03 05:23:54;;;;;;;6.32;2.28;;;;;;;13.41;70.02;97717.75;5113520;28;20077;-82
2023/05/03 05:26:20;;;;;;;3.05;2.20;;;;;;;13.29;72.41;97718.59;5113663;28;20015;-82
2023/05/03 05:28:45;;;;;;;5.57;2.97;;;;;;;13.04;75.21;97707.84;5096498;28;20023;-82
2023/05/03 05:31:11;;;;;;;4.82;2.83;;;;;;;12.86;78.47;97706.41;5113098;28;20070;-82
2023/05/03 05:33:37;;;;;;;6.00;3.85;;;;;;;12.78;80.27;97732.91;5112922;28;20027;-81
2023/05/03 05:36:03;;;;;;;17.75;8.57;;;;;;;12.77;81.27;97733.88;5113259;28;20019;-80
2023/05/03 05:38:29;;;;;;;6.22;2.97;;;;;;;12.93;81.27;97742.63;5113379;28;20024;-81
2023/05/03 05:40:54;;;;;;;3.58;2.60;;;;;;;13.07;78.69;97739.00;5096906;28;20501;-83
2023/05/03 05:43:20;;;;;;;5.63;2.80;;;;;;;13.20;78.14;97745.25;5113463;28;20076;-83
2023/05/03 05:45:45;;;;;;;4.20;2.38;;;;;;;13.22;75.65;97730.78;5113181;28;20451;-81
2023/05/03 05:48:11;;;;;;;3.25;2.28;;;;;;;13.30;75.09;97741.84;5095447;28;20430;-82
2023/05/03 05:50:36;;;;;;;4.82;2.72;;;;;;;13.27;74.88;97739.38;5112586;28;20023;-81
2023/05/03 05:53:02;;;;;;;10.75;3.08;;;;;;;13.28;77.73;97740.22;5113146;28;20028;-82
2023/05/03 05:55:27;;;;;;;3.88;2.80;;;;;;;13.28;77.70;97749.16;5096745;28;20027;-83
2023/05/03 05:57:53;;;;;;;4.85;3.20;;;;;;;13.37;78.37;97751.19;5114493;28;20507;-82
2023/05/03 06:00:20;;;;;;;36.35;15.93;;;;;;;13.40;81.44;97756.34;5095709;28;20065;-84
2023/05/03 06:02:47;;;;;;;10.52;3.30;;;;;;;13.52;80.95;97766.25;5112962;28;20015;-83
2023/05/03 06:05:13;;;;;;;5.55;3.03;;;;;;;13.51;82.60;97771.72;5113459;28;20031;-83
2023/05/03 06:07:39;;;;;;;5.68;3.00;;;;;;;13.28;84.22;97765.28;5096301;28;20051;-83
2023/05/03 06:10:05;;;;;;;20.92;9.85;;;;;;;13.22;89.20;97765.69;5114129;27;20515;-82
2023/05/03 06:12:31;;;;;;;7.70;2.72;;;;;;;13.07;91.22;97766.72;5096249;28;20114;-84
2023/05/03 06:14:56;;;;;;;6.45;3.30;;;;;;;12.89;93.21;97776.00;5096022;28;20225;-83
2023/05/03 06:17:22;;;;;;;30.58;14.93;;;;;;;12.70;100.00;97783.59;5095426;28;20054;-83
2023/05/03 06:19:51;;;;;;;7.75;4.18;;;;;;;12.71;99.79;97791.53;5112406;28;20420;-84
2023/05/03 06:22:16;;;;;;;10.75;4.70;;;;;;;12.80;100.00;97792.72;5096479;28;20475;-83
2023/05/03 06:24:42;;;;;;;6.93;3.70;;;;;;;12.95;96.25;97789.03;5096173;28;20140;-82
2023/05/03 06:27:07;;;;;;;11.10;4.70;;;;;;;13.15;97.91;97785.88;5114015;28;20027;-83
2023/05/03 06:29:33;;;;;;;11.68;4.63;;;;;;;13.46;93.59;97780.13;5112745;28;20134;-82
2023/05/03 06:31:58;;;;;;;9.00;3.67;;;;;;;13.65;91.88;97784.19;5113188;28;20031;-82
2023/05/03 06:34:24;;;;;;;8.02;3.75;;;;;;;13.78;86.00;97772.44;5096701;28;20437;-82
2023/05/03 06:36:50;;;;;;;12.38;5.63;;;;;;;13.91;84.91;97775.13;5096105;28;20035;-82
2023/05/03 06:39:16;;;;;;;7.28;4.07;;;;;;;14.01;84.69;97777.06;5096410;28;20034;-83
2023/05/03 06:41:42;;;;;;;7.28;3.70;;;;;;;14.15;84.67;97770.66;5096874;28;20120;-82
2023/05/03 06:44:08;;;;;;;7.13;3.63;;;;;;;14.24;83.13;97759.25;5096079;28;20023;-82
2023/05/03 06:46:34;;;;;;;11.07;5.07;;;;;;;14.37;82.88;97762.78;5113729;28;20039;-83
2023/05/03 06:49:00;;;;;;;23.40;9.05;;;;;;;14.43;86.04;97775.78;5096380;28;20118;-81
2023/05/03 06:51:27;;;;;;;70.72;22.30;;;;;;;14.58;80.40;97763.88;5112628;28;20028;-82
2023/05/03 06:54:00;;;;;;;17.02;7.90;;;;;;;14.67;79.08;97769.56;5095183;28;20028;-83
2023/05/03 06:56:27;;;;;;;11.90;5.25;;;;;;;14.78;79.27;97767.78;5095690;28;20410;-83
2023/05/03 06:58:53;;;;;;;24.92;13.15;;;;;;;14.86;79.92;97772.59;5113495;28;20111;-83
2023/05/03 07:01:19;;;;;;;17.08;9.05;;;;;;;14.95;79.33;97774.59;5113555;28;20503;-83
2023/05/03 07:03:47;;;;;;;21.17;11.15;;;;;;;14.84;77.22;97758.38;5091809;28;20084;-83
2023/05/03 07:06:14;;;;;;;5.05;3.30;;;;;;;14.78;78.53;97739.97;5111805;28;20118;-83
2023/05/03 07:08:39;;;;;;;7.10;3.38;;;;;;;14.92;80.25;97764.06;5095591;28;20122;-84
2023/05/03 07:11:05;;;;;;;8.48;3.13;;;;;;;14.88;80.99;97749.97;5112723;28;20551;-82
2023/05/03 07:13:31;;;;;;;12.95;3.22;;;;;;;14.91;80.67;97747.03;5094884;28;20483;-82
2023/05/03 07:15:56;;;;;;;8.55;5.28;;;;;;;14.93;81.56;97750.44;5112672;28;20101;-83
2023/05/03 07:18:22;;;;;;;7.93;3.67;;;;;;;14.90;91.70;97768.69;5095530;28;20191;-83
2023/05/03 07:20:47;;;;;;;7.15;3.92;;;;;;;14.94;100.00;97770.16;5112884;28;20027;-83
2023/05/03 07:23:14;;;;;;;7.18;3.60;;;;;;;14.95;100.00;97756.56;5095051;28;20047;-82
2023/05/03 07:25:41;;;;;;;7.43;3.80;;;;;;;15.04;100.00;97761.25;5095111;28;20399;-84
2023/05/03 07:28:06;;;;;;;11.57;4.68;;;;;;;15.15;100.00;97765.84;5094571;28;20031;-82
2023/05/03 07:30:32;;;;;;;7.70;3.90;;;;;;;15.09;100.00;97769.00;5094598;28;20054;-83
2023/05/03 07:32:57;;;;;;;10.45;4.30;;;;;;;15.21;100.00;97768.06;5111409;28;20532;-83
2023/05/03 07:35:23;;;;;;;7.18;4.00;;;;;;;15.17;100.00;97774.66;5094657;28;20034;-84
2023/05/03 07:37:48;;;;;;;7.85;4.00;;;;;;;15.20;100.00;97772.59;5094605;28;20088;-83
2023/05/03 07:40:14;;;;;;;9.02;4.60;;;;;;;15.25;100.00;97776.78;5094242;28;20067;-82
2023/05/03 07:42:39;;;;;;;8.30;4.47;;;;;;;15.27;100.00;97772.09;5094720;28;20015;-83
2023/05/03 07:45:06;;;;;;;6.57;4.22;;;;;;;15.30;100.00;97775.44;5111370;28;20034;-83
2023/05/03 07:47:34;;;;;;;6.65;4.00;;;;;;;15.39;100.00;97761.25;5110308;28;20062;-83
2023/05/03 07:50:00;;;;;;;9.00;3.65;;;;;;;15.35;100.00;97770.53;5111921;28;20542;-82
2023/05/03 07:52:26;;;;;;;8.68;4.22;;;;;;;15.43;100.00;97784.28;5094888;28;20371;-82
2023/05/03 07:54:52;;;;;;;5.53;3.25;;;;;;;15.68;100.00;97767.94;5095356;28;20024;-83
2023/05/03 07:57:17;;;;;;;6.25;3.92;;;;;;;15.71;100.00;97772.25;5094154;28;20069;-82
2023/05/03 07:59:43;;;;;;;9.35;4.78;;;;;;;15.92;100.00;97777.75;5111132;28;20138;-82
2023/05/03 08:02:09;;;;;;;11.30;4.47;;;;;;;15.86;100.00;97772.84;5094472;28;20058;-82
2023/05/03 08:04:35;;;;;;;8.70;4.72;;;;;;;16.03;100.00;97766.97;5111035;28;20471;-82
2023/05/03 08:07:01;;;;;;;12.98;5.00;;;;;;;16.37;100.00;97774.03;5111347;28;20027;-82
2023/05/03 08:09:27;;;;;;;10.20;4.72;;;;;;;16.78;93.46;97760.72;5093896;28;20192;-83
2023/05/03 08:11:54;;;;;;;12.85;4.80;;;;;;;17.08;90.78;97775.34;5093675;28;20361;-82
2023/05/03 08:14:20;;;;;;;10.68;4.85;;;;;;;17.38;86.08;97766.47;5094256;28;20028;-83
2023/05/03 08:16:45;;;;;;;7.25;4.25;;;;;;;17.71;83.54;97772.56;5093684;28;20084;-83
2023/05/03 08:19:11;;;;;;;8.88;4.45;;;;;;;17.94;83.31;97770.53;5111438;28;20051;-83
2023/05/03 08:21:36;;;;;;;6.18;4.00;;;;;;;17.79;84.03;97767.34;5113110;28;20100;-84
2023/05/03 08:24:04;;;;;;;15.60;5.53;;;;;;;17.83;84.19;97763.38;5111139;28;20046;-84
2023/05/03 08:26:31;;;;;;;15.20;6.07;;;;;;;17.94;82.97;97769.69;5100317;28;20055;-82
2023/05/03 08:28:56;;;;;;;11.45;4.80;;;;;;;17.94;79.95;97753.44;5117403;28;20028;-83
2023/05/03 08:31:21;;;;;;;7.97;4.03;;;;;;;17.90;81.19;97768.25;5117124;28;20410;-84
2023/05/03 08:33:47;;;;;;;8.90;3.38;;;;;;;18.22;76.17;97753.56;5100301;28;20118;-82
2023/05/03 08:36:12;;;;;;;10.80;4.10;;;;;;;18.26;73.33;97748.72;5117482;28;20475;-84
2023/05/03 08:38:40;;;;;;;7.40;4.13;;;;;;;18.51;74.34;97750.97;5100627;28;20019;-84
2023/05/03 08:41:24;;;;;;;13.15;3.35;;;;;;;19.02;65.35;97747.19;5100557;28;20028;-83
2023/05/03 08:43:54;;;;;;;3.67;3.10;;;;;;;19.22;61.55;97727.22;5100808;28;20019;-82
2023/05/03 08:46:20;;;;;;;7.40;3.20;;;;;;;19.65;60.79;97748.44;5117420;28;20023;-83
2023/05/03 08:48:48;;;;;;;5.57;3.00;;;;;;;20.41;57.47;97739.19;5100401;28;20027;-83
2023/05/03 08:51:15;;;;;;;4.35;3.05;;;;;;;20.79;54.52;97719.91;5117301;28;20553;-83
2023/05/03 08:53:41;;;;;;;6.88;3.20;;;;;;;21.49;53.88;97734.53;5117324;28;20035;-84
2023/05/03 08:56:07;;;;;;;8.40;2.90;;;;;;;23.25;47.19;97712.81;5100697;28;20112;-83
2023/05/03 08:58:35;;;;;;;10.85;2.83;;;;;;;25.71;42.14;97703.13;5117498;28;20042;-83
2023/05/03 09:01:08;;;;;;;7.88;2.67;;;;;;;26.82;38.51;97676.47;5100241;28;20043;-83
2023/05/03 09:03:35;;;;;;;4.72;2.72;;;;;;;28.59;35.64;97681.72;5099301;28;20040;-83
2023/05/03 09:06:01;;;;;;;5.05;2.85;;;;;;;28.75;34.25;97656.63;5099505;28;20042;-82
2023/05/03 09:08:28;;;;;;;5.53;3.13;;;;;;;29.17;34.46;97659.06;5100097;28;20114;-81
2023/05/03 09:10:53;;;;;;;7.50;5.20;;;;;;;30.33;32.58;97660.38;5100978;28;20050;-82
2023/05/03 09:13:19;;;;;;;4.25;2.70;;;;;;;30.45;31.76;97651.22;5116698;28;20027;-82
2023/05/03 09:15:54;;;;;;;9.02;2.80;;;;;;;31.08;30.79;97640.31;5099618;28;20024;-82
2023/05/03 09:18:20;;;;;;;5.05;2.80;;;;;;;31.22;31.32;97641.94;5099546;28;20535;-82
2023/05/03 09:20:50;;;;;;;10.18;3.80;;;;;;;29.63;32.08;97623.28;5099297;28;20118;-82
2023/05/03 09:23:25;;;;;;;5.25;2.95;;;;;;;27.94;34.82;97611.50;5116782;28;20022;-82
2023/05/03 09:25:51;;;;;;;4.68;2.70;;;;;;;28.56;34.20;97610.56;5114714;28;20028;-81
2023/05/03 09:28:18;;;;;;;8.13;3.15;;;;;;;28.32;34.69;97614.72;5100010;28;20019;-82
2023/05/03 09:30:45;;;;;;;7.97;4.20;;;;;;;28.84;34.30;97612.19;5113825;28;20122;-82
2023/05/03 09:33:11;;;;;;;8.00;3.38;;;;;;;29.46;34.31;97633.06;5099391;28;20486;-81
2023/05/03 09:35:37;;;;;;;6.07;3.85;;;;;;;30.80;32.93;97632.34;5116226;28;20020;-81
2023/05/03 09:38:03;;;;;;;4.55;3.10;;;;;;;31.23;32.12;97628.94;5095810;28;20114;-82
2023/05/03 09:40:29;;;;;;;6.32;3.22;;;;;;;31.47;31.90;97620.66;5096182;28;20508;-82
2023/05/03 09:43:11;;;;;;;14.30;3.13;;;;;;;32.18;30.73;97614.72;5096156;28;20039;-82
2023/05/03 09:45:37;;;;;;;;;;;;;;;30.99;32.07;97589.13;5113574;28;20027;-82
2023/05/03 09:48:05;;;;;;;7.45;3.58;;;;;;;30.87;32.55;97590.88;5112732;28;19915;-81
2023/05/03 09:50:32;;;;;;;3.15;2.78;;;;;;;31.21;32.16;97595.13;5095897;28;20019;-81
2023/05/03 09:53:05;;;;;;;3.85;2.63;;;;;;;31.26;31.93;97596.16;5096590;28;20425;-82
2023/05/03 09:55:35;;;;;;;4.22;3.45;;;;;;;30.51;33.42;97586.84;5113432;28;20116;-81
2023/05/03 09:58:08;;;;;;;6.97;3.15;;;;;;;31.23;32.23;97595.75;5096337;28;20019;-82
2023/05/03 10:00:39;;;;;;;4.90;2.70;;;;;;;31.43;32.36;97602.84;5096689;28;20061;-81
2023/05/03 10:03:09;;;;;;;3.35;2.92;;;;;;;31.65;31.65;97586.72;5113280;28;20023;-80
2023/05/03 10:05:41;;;;;;;3.22;2.78;;;;;;;30.79;31.73;97560.75;5113056;28;20471;-81
2023/05/03 10:08:06;;;;;;;;;;;;;;;30.58;32.89;97573.81;5113637;28;20080;-81
2023/05/03 10:10:33;;;;;;;2.60;2.40;;;;;;;31.13;32.24;97587.97;5114981;28;19904;-81
2023/05/03 10:13:01;;;;;;;3.58;2.70;;;;;;;30.68;31.89;97561.44;5112848;28;20088;-81
2023/05/03 10:15:28;;;;;;;4.75;2.65;;;;;;;31.74;30.70;97577.06;5096441;28;20027;-80
2023/05/03 10:17:56;;;;;;;3.97;3.15;;;;;;;32.26;30.48;97583.13;5113580;28;20028;-81
2023/05/03 10:20:34;;;;;;;3.35;2.92;;;;;;;31.52;31.16;97556.41;5112990;28;20106;-81
2023/05/03 10:23:13;;;;;;;6.13;3.05;;;;;;;28.79;34.72;97551.38;5112411;28;20068;-81
2023/05/03 10:25:40;;;;;;;4.10;3.05;;;;;;;27.84;36.49;97539.53;5112302;28;20447;-82
2023/05/03 10:28:07;;;;;;;4.55;3.20;;;;;;;28.41;36.61;97556.53;5095225;28;20027;-83
2023/05/03 10:30:39;;;;;;;6.38;2.85;;;;;;;29.35;35.34;97550.97;5095574;28;20153;-81
2023/05/03 10:33:11;;;;;;;6.38;3.60;;;;;;;30.16;34.47;97565.28;5112297;28;20031;-81
2023/05/03 10:35:40;;;;;;;8.65;3.45;;;;;;;30.50;32.96;97542.84;5113495;28;20457;-82
2023/05/03 10:38:16;;;;;;;6.05;3.08;;;;;;;31.46;32.11;97569.19;5094908;28;20472;-83
2023/05/03 10:40:43;;;;;;;4.43;2.58;;;;;;;32.39;30.83;97558.88;5094778;28;20460;-81
2023/05/03 10:43:29;;;;;;;3.75;3.15;;;;;;;31.80;31.67;97548.47;5111626;28;20107;-81
2023/05/03 10:45:57;;;;;;;4.13;3.72;;;;;;;31.87;31.57;97549.22;5098075;28;20403;-82
2023/05/03 10:48:23;;;;;;;6.07;2.70;;;;;;;32.59;30.78;97551.19;5112179;28;20051;-81
2023/05/03 10:50:50;;;;;;;4.43;2.90;;;;;;;30.90;33.22;97535.16;5112979;28;20050;-81
2023/05/03 10:53:37;;;;;;;3.47;3.10;;;;;;;28.40;36.63;97532.81;5111703;28;20080;-81
2023/05/03 10:56:09;;;;;;;6.28;3.20;;;;;;;27.11;39.02;97532.66;5113104;28;20096;-80
2023/05/03 10:58:37;;;;;;;5.30;3.35;;;;;;;26.54;40.37;97542.88;5095230;28;20054;-81
2023/05/03 11:01:08;;;;;;;4.53;3.45;;;;;;;26.63;39.75;97533.47;5111582;28;20483;-78
2023/05/03 11:03:42;;;;;;;4.43;3.33;;;;;;;26.62;39.83;97542.72;5094064;28;20041;-76
2023/05/03 11:06:08;;;;;;;4.95;3.45;;;;;;;25.71;41.47;97526.84;5093893;28;20467;-76
2023/05/03 11:08:36;;;;;;;5.90;3.30;;;;;;;26.59;40.66;97552.22;5093978;28;20120;-76
2023/05/03 11:11:08;;;;;;;4.63;3.80;;;;;;;27.52;39.64;97556.66;5110553;28;20032;-77
2023/05/03 11:13:36;;;;;;;9.45;3.13;;;;;;;26.36;41.00;97530.41;5094319;28;20020;-77
2023/05/03 11:16:02;;;;;;;4.43;2.75;;;;;;;25.48;42.53;97521.44;5111713;28;20523;-76
2023/05/03 11:18:28;;;;;;;9.40;3.55;;;;;;;25.06;43.67;97533.03;5110667;28;20118;-77
2023/05/03 11:20:54;;;;;;;4.95;2.97;;;;;;;24.24;45.28;97545.59;5110804;28;20027;-77
2023/05/03 11:23:25;;;;;;;4.07;2.95;;;;;;;23.75;46.70;97539.50;5110328;28;20022;-77
2023/05/03 11:25:51;;;;;;;8.57;3.25;;;;;;;23.95;46.30;97548.13;5093529;28;20019;-77
2023/05/03 11:28:17;;;;;;;6.30;3.35;;;;;;;23.85;47.04;97544.75;5110249;28;20057;-75
2023/05/03 11:30:42;;;;;;;4.93;3.50;;;;;;;23.63;47.55;97542.78;5093338;28;20043;-74
2023/05/03 11:33:08;;;;;;;4.70;3.33;;;;;;;23.77;48.23;97555.72;5110277;28;20023;-74